createdAt,value
2018-08-31T00:01:41.544Z,19.65
2018-08-31T00:04:46.007Z,19.63
2018-08-31T00:07:29.562Z,19.61
2018-08-31T00:12:12.289Z,19.62
2018-08-31T00:14:40.925Z,19.48
2018-08-31T00:17:09.433Z,19.49
2018-08-31T00:19:37.923Z,19.49
2018-08-31T00:22:06.432Z,19.49
2018-08-31T00:24:46.196Z,19.49
2018-08-31T00:27:25.807Z,19.41
2018-08-31T00:31:05.558Z,19.35
2018-08-31T00:33:44.934Z,19.10
2018-08-31T00:36:23.500Z,19.12
2018-08-31T00:39:07.648Z,19.18
2018-08-31T00:41:53.733Z,19.21
2018-08-31T00:44:30.767Z,19.19
2018-08-31T00:46:59.223Z,19.20
2018-08-31T00:49:27.744Z,19.21
2018-08-31T00:51:56.223Z,19.21
2018-08-31T00:54:24.727Z,19.21
2018-08-31T00:56:53.255Z,19.17
2018-08-31T00:59:21.768Z,19.16
2018-08-31T01:01:50.357Z,19.17
2018-08-31T01:04:18.875Z,19.18
2018-08-31T01:06:48.044Z,19.17
2018-08-31T01:09:16.556Z,19.15
2018-08-31T01:11:45.081Z,19.12
2018-08-31T01:14:13.622Z,19.11
2018-08-31T01:16:42.119Z,19.10
2018-08-31T01:19:10.648Z,19.10
2018-08-31T01:21:39.155Z,19.11
2018-08-31T01:24:07.684Z,19.10
2018-08-31T01:26:36.214Z,19.08
2018-08-31T01:29:04.720Z,19.04
2018-08-31T01:31:33.189Z,19.01
2018-08-31T01:34:01.714Z,19.00
2018-08-31T01:36:30.381Z,18.98
2018-08-31T01:38:58.914Z,18.98
2018-08-31T01:41:27.426Z,18.98
2018-08-31T01:43:55.905Z,18.96
2018-08-31T01:46:24.435Z,18.95
2018-08-31T01:48:53.006Z,18.91
2018-08-31T01:51:21.884Z,18.90
2018-08-31T01:53:50.376Z,18.86
2018-08-31T01:56:18.908Z,18.70
2018-08-31T01:58:47.430Z,18.85
2018-08-31T02:01:15.968Z,18.86
2018-08-31T02:03:44.509Z,18.87
2018-08-31T02:06:13.045Z,18.85
2018-08-31T02:08:46.873Z,18.83
2018-08-31T02:11:15.426Z,18.80
2018-08-31T02:13:43.921Z,18.79
2018-08-31T02:16:12.487Z,18.77
2018-08-31T02:18:40.976Z,18.73
2018-08-31T02:21:09.450Z,18.71
2018-08-31T02:23:38.104Z,18.69
2018-08-31T02:26:06.639Z,18.68
2018-08-31T02:28:35.102Z,18.68
2018-08-31T02:31:03.639Z,18.65
2018-08-31T02:33:32.135Z,18.63
2018-08-31T02:36:00.809Z,18.62
2018-08-31T02:38:29.347Z,18.42
2018-08-31T02:40:57.899Z,18.59
2018-08-31T02:43:26.549Z,18.59
2018-08-31T02:45:55.043Z,18.57
2018-08-31T02:48:23.508Z,18.57
2018-08-31T02:50:51.980Z,18.57
2018-08-31T02:53:20.517Z,18.56
2018-08-31T02:55:48.999Z,18.55
2018-08-31T02:58:17.480Z,18.52
2018-08-31T03:00:45.963Z,18.52
2018-08-31T03:03:14.449Z,18.48
2018-08-31T03:05:43.060Z,18.47
2018-08-31T03:08:11.606Z,18.45
2018-08-31T03:10:40.303Z,18.43
2018-08-31T03:13:08.808Z,18.40
2018-08-31T03:15:37.294Z,18.40
2018-08-31T03:18:05.796Z,18.39
2018-08-31T03:20:34.346Z,18.38
2018-08-31T03:23:02.907Z,18.37
2018-08-31T03:25:31.422Z,18.36
2018-08-31T03:27:59.967Z,18.34
2018-08-31T03:30:29.099Z,18.31
2018-08-31T03:32:57.727Z,18.30
2018-08-31T03:35:26.427Z,18.32
2018-08-31T03:37:55.349Z,18.30
2018-08-31T03:40:23.895Z,18.30
2018-08-31T03:42:52.436Z,18.28
2018-08-31T03:45:21.059Z,18.28
2018-08-31T03:47:49.975Z,18.27
2018-08-31T03:50:18.901Z,18.25
2018-08-31T03:52:47.406Z,18.24
2018-08-31T03:55:15.995Z,18.23
2018-08-31T03:57:44.559Z,18.21
2018-08-31T04:00:13.176Z,18.21
2018-08-31T04:02:41.743Z,18.21
2018-08-31T04:05:10.479Z,18.21
2018-08-31T04:07:38.995Z,18.18
2018-08-31T04:10:08.296Z,18.17
2018-08-31T04:12:36.880Z,18.15
2018-08-31T04:15:05.542Z,18.14
2018-08-31T04:17:34.040Z,18.12
2018-08-31T04:20:02.575Z,18.12
2018-08-31T04:22:31.152Z,18.12
2018-08-31T04:24:59.616Z,18.11
2018-08-31T04:27:28.218Z,18.09
2018-08-31T04:29:56.726Z,18.09
2018-08-31T04:32:25.196Z,18.08
2018-08-31T04:34:53.714Z,18.07
2018-08-31T04:37:22.238Z,18.06
2018-08-31T04:39:50.866Z,18.06
2018-08-31T04:42:19.388Z,18.06
2018-08-31T04:44:47.899Z,18.04
2018-08-31T04:47:16.453Z,18.06
2018-08-31T04:49:45.092Z,18.06
2018-08-31T04:52:13.631Z,18.07
2018-08-31T04:54:42.163Z,18.06
2018-08-31T04:57:10.720Z,18.07
2018-08-31T04:59:39.283Z,18.09
2018-08-31T05:02:07.844Z,18.10
2018-08-31T05:04:36.345Z,18.12
2018-08-31T05:07:04.920Z,18.14
2018-08-31T05:09:33.470Z,18.15
2018-08-31T05:12:02.003Z,18.17
2018-08-31T05:14:30.508Z,18.19
2018-08-31T05:16:59.116Z,18.23
2018-08-31T05:19:27.661Z,18.24
2018-08-31T05:21:56.197Z,18.28
2018-08-31T05:24:24.741Z,18.30
2018-08-31T05:26:53.233Z,18.32
2018-08-31T05:29:21.789Z,18.35
2018-08-31T05:31:50.299Z,18.38
2018-08-31T05:34:18.855Z,18.42
2018-08-31T05:36:47.362Z,18.45
2018-08-31T05:39:15.888Z,18.49
2018-08-31T05:41:44.556Z,18.52
2018-08-31T05:44:13.111Z,18.55
2018-08-31T05:46:41.668Z,18.57
2018-08-31T05:49:10.195Z,18.58
2018-08-31T05:51:38.699Z,18.62
2018-08-31T05:54:07.412Z,18.65
2018-08-31T05:56:35.995Z,18.68
2018-08-31T05:59:04.516Z,18.72
2018-08-31T06:01:32.980Z,18.76
2018-08-31T06:04:01.492Z,18.79
2018-08-31T06:06:29.954Z,18.84
2018-08-31T06:08:58.561Z,18.93
2018-08-31T06:11:27.142Z,18.99
2018-08-31T06:13:55.688Z,19.06
2018-08-31T06:16:24.351Z,19.13
2018-08-31T06:18:52.921Z,19.23
2018-08-31T06:21:21.586Z,19.36
2018-08-31T06:23:50.132Z,19.52
2018-08-31T06:26:18.737Z,19.69
2018-08-31T06:28:47.366Z,19.84
2018-08-31T06:31:16.039Z,20.01
2018-08-31T06:33:44.969Z,20.15
2018-08-31T06:36:14.098Z,20.29
2018-08-31T06:38:42.744Z,20.45
2018-08-31T06:41:11.347Z,20.63
2018-08-31T06:43:39.917Z,20.87
2018-08-31T06:46:08.467Z,21.13
2018-08-31T06:48:37.082Z,21.37
2018-08-31T06:51:05.692Z,21.62
2018-08-31T06:53:34.273Z,21.89
2018-08-31T06:56:02.906Z,22.22
2018-08-31T06:58:32.066Z,22.76
2018-08-31T07:01:01.111Z,23.29
2018-08-31T07:03:30.944Z,23.66
2018-08-31T07:05:59.630Z,23.91
2018-08-31T07:08:28.277Z,23.93
2018-08-31T07:10:56.858Z,23.91
2018-08-31T07:13:25.378Z,23.91
2018-08-31T07:15:54.027Z,23.96
2018-08-31T07:18:22.619Z,23.98
2018-08-31T07:20:52.266Z,24.17
2018-08-31T07:23:21.311Z,24.36
2018-08-31T07:25:49.896Z,24.44
2018-08-31T07:28:18.475Z,24.40
2018-08-31T07:30:47.060Z,24.21
2018-08-31T07:33:15.651Z,24.10
2018-08-31T07:35:44.163Z,23.97
2018-08-31T07:38:12.632Z,23.86
2018-08-31T07:40:41.265Z,23.73
2018-08-31T07:43:09.836Z,23.66
2018-08-31T07:45:38.344Z,23.68
2018-08-31T07:48:06.871Z,23.79
2018-08-31T07:50:35.540Z,23.85
2018-08-31T07:53:04.292Z,24.00
2018-08-31T07:55:32.958Z,24.22
2018-08-31T07:58:02.635Z,24.49
2018-08-31T08:00:31.313Z,24.84
2018-08-31T08:02:59.853Z,25.15
2018-08-31T08:05:28.649Z,25.49
2018-08-31T08:08:00.237Z,25.74
2018-08-31T08:10:28.928Z,25.85
2018-08-31T08:12:57.535Z,25.99
2018-08-31T08:15:26.112Z,26.19
2018-08-31T08:17:54.641Z,26.42
2018-08-31T08:20:23.832Z,26.60
2018-08-31T08:22:52.557Z,26.65
2018-08-31T08:25:21.410Z,26.55
2018-08-31T08:27:50.232Z,26.56
2018-08-31T08:30:18.794Z,26.57
2018-08-31T08:32:47.348Z,26.41
2018-08-31T08:35:16.006Z,26.32
2018-08-31T08:37:44.568Z,26.41
2018-08-31T08:40:13.269Z,26.70
2018-08-31T08:42:42.003Z,26.90
2018-08-31T08:45:10.512Z,27.14
2018-08-31T08:47:39.268Z,27.62
2018-08-31T08:50:07.880Z,28.04
2018-08-31T08:52:36.567Z,28.17
2018-08-31T08:55:05.256Z,28.36
2018-08-31T08:57:33.886Z,28.74
2018-08-31T09:00:02.708Z,28.69
2018-08-31T09:02:31.287Z,28.39
2018-08-31T09:04:59.903Z,28.13
2018-08-31T09:07:28.480Z,28.02
2018-08-31T09:09:57.072Z,28.18
2018-08-31T09:12:25.738Z,28.33
2018-08-31T09:14:54.349Z,28.23
2018-08-31T09:17:22.923Z,28.13
2018-08-31T09:19:51.435Z,27.90
2018-08-31T09:22:20.014Z,27.71
2018-08-31T09:24:48.676Z,27.58
2018-08-31T09:27:17.331Z,28.26
2018-08-31T09:29:46.131Z,29.29
2018-08-31T09:32:19.855Z,30.08
2018-08-31T09:34:51.965Z,30.05
2018-08-31T09:37:21.241Z,30.35
2018-08-31T09:39:50.275Z,31.02
2018-08-31T09:42:19.678Z,31.98
2018-08-31T09:44:48.400Z,33.11
2018-08-31T09:47:17.089Z,34.03
2018-08-31T09:49:46.684Z,34.76
2018-08-31T09:52:17.163Z,34.84
2018-08-31T09:54:45.791Z,34.20
2018-08-31T09:57:14.386Z,33.55
2018-08-31T09:59:42.959Z,34.11
2018-08-31T10:02:16.688Z,34.82
2018-08-31T10:04:45.974Z,35.94
2018-08-31T10:07:14.500Z,37.23
2018-08-31T10:09:43.108Z,38.06
2018-08-31T10:12:11.763Z,38.51
2018-08-31T10:14:40.270Z,38.95
2018-08-31T10:17:09.065Z,39.01
2018-08-31T10:19:37.655Z,39.47
2018-08-31T10:22:06.332Z,39.79
2018-08-31T10:24:35.137Z,39.78
2018-08-31T10:27:03.715Z,39.94
2018-08-31T10:29:32.255Z,39.41
2018-08-31T10:32:00.911Z,38.47
2018-08-31T10:34:29.439Z,37.23
2018-08-31T10:36:58.086Z,36.01
2018-08-31T10:39:27.144Z,34.78
2018-08-31T10:41:55.784Z,33.76
2018-08-31T10:44:24.351Z,32.76
2018-08-31T10:46:53.034Z,32.07
2018-08-31T10:49:21.596Z,31.43
2018-08-31T10:51:50.296Z,30.73
2018-08-31T10:54:18.941Z,30.32
2018-08-31T10:56:47.641Z,29.72
2018-08-31T10:59:16.233Z,29.25
2018-08-31T11:01:44.844Z,28.94
2018-08-31T11:04:13.336Z,28.52
2018-08-31T11:06:41.947Z,28.12
2018-08-31T11:09:10.561Z,27.83
2018-08-31T11:11:39.183Z,27.55
2018-08-31T11:14:07.660Z,27.20
2018-08-31T11:16:36.260Z,26.98
2018-08-31T11:19:04.856Z,26.66
2018-08-31T11:21:33.526Z,26.50
2018-08-31T11:24:02.223Z,26.42
2018-08-31T11:26:30.848Z,26.42
2018-08-31T11:28:59.550Z,26.42
2018-08-31T11:31:28.196Z,26.42
2018-08-31T11:33:57.245Z,26.46
2018-08-31T11:36:25.794Z,26.49
2018-08-31T11:38:54.420Z,26.54
2018-08-31T11:41:23.070Z,26.53
2018-08-31T11:43:51.721Z,26.58
2018-08-31T11:46:20.335Z,26.24
2018-08-31T11:48:49.861Z,26.83
2018-08-31T11:51:18.468Z,26.96
2018-08-31T11:53:47.053Z,27.16
2018-08-31T11:56:15.972Z,27.33
2018-08-31T11:58:44.536Z,27.39
2018-08-31T12:01:13.526Z,27.43
2018-08-31T12:03:42.095Z,27.44
2018-08-31T12:06:10.699Z,27.31
2018-08-31T12:08:39.352Z,27.35
2018-08-31T12:11:07.904Z,27.51
2018-08-31T12:13:36.680Z,27.70
2018-08-31T12:16:05.373Z,27.82
2018-08-31T12:18:42.404Z,27.73
2018-08-31T12:21:11.652Z,27.54
2018-08-31T12:23:40.143Z,27.39
2018-08-31T12:26:08.792Z,27.27
2018-08-31T12:28:37.431Z,27.23
2018-08-31T12:31:06.286Z,27.24
2018-08-31T12:33:34.889Z,27.29
2018-08-31T12:36:03.602Z,27.25
2018-08-31T12:38:32.064Z,27.27
2018-08-31T12:41:00.716Z,27.40
2018-08-31T12:43:29.262Z,27.57
2018-08-31T12:45:57.921Z,27.78
2018-08-31T12:48:26.558Z,28.02
2018-08-31T12:50:55.076Z,28.16
2018-08-31T12:53:23.730Z,28.16
2018-08-31T12:55:53.271Z,28.00
2018-08-31T12:58:21.907Z,27.89
2018-08-31T13:00:50.536Z,27.72
2018-08-31T13:03:19.151Z,27.46
2018-08-31T13:05:47.983Z,27.42
2018-08-31T13:08:16.510Z,27.50
2018-08-31T13:10:45.131Z,27.32
2018-08-31T13:13:13.715Z,27.09
2018-08-31T13:15:42.305Z,27.27
2018-08-31T13:18:10.812Z,27.26
2018-08-31T13:20:39.481Z,27.29
2018-08-31T13:23:08.163Z,27.39
2018-08-31T13:25:36.771Z,27.48
2018-08-31T13:28:05.362Z,27.63
2018-08-31T13:30:34.033Z,27.68
2018-08-31T13:33:02.792Z,27.69
2018-08-31T13:35:31.451Z,27.55
2018-08-31T13:38:00.352Z,27.34
2018-08-31T13:40:29.395Z,27.13
2018-08-31T13:42:58.005Z,26.92
2018-08-31T13:45:26.668Z,26.73
2018-08-31T13:47:55.533Z,26.54
2018-08-31T13:50:24.113Z,26.41
2018-08-31T13:52:52.727Z,26.41
2018-08-31T13:55:21.485Z,26.19
2018-08-31T13:57:50.128Z,26.10
2018-08-31T14:00:18.834Z,26.17
2018-08-31T14:02:47.513Z,26.06
2018-08-31T14:05:16.168Z,25.99
2018-08-31T14:07:45.703Z,26.01
2018-08-31T14:10:14.412Z,26.08
2018-08-31T14:12:43.127Z,26.10
2018-08-31T14:15:11.807Z,26.13
2018-08-31T14:17:40.606Z,26.23
2018-08-31T14:20:09.312Z,26.35
2018-08-31T14:22:37.959Z,26.42
2018-08-31T14:25:06.626Z,26.46
2018-08-31T14:27:35.259Z,26.52
2018-08-31T14:30:03.937Z,26.57
2018-08-31T14:32:32.553Z,26.65
2018-08-31T14:35:01.109Z,26.77
2018-08-31T14:37:30.200Z,26.97
2018-08-31T14:39:59.000Z,26.95
2018-08-31T14:42:27.805Z,26.83
2018-08-31T14:44:56.472Z,26.64
2018-08-31T14:47:25.097Z,26.57
2018-08-31T14:49:53.933Z,26.41
2018-08-31T14:52:22.502Z,26.25
2018-08-31T14:54:51.139Z,26.17
2018-08-31T14:57:19.664Z,26.12
2018-08-31T14:59:48.331Z,26.10
2018-08-31T15:02:17.020Z,26.11
2018-08-31T15:04:45.670Z,26.04
2018-08-31T15:07:14.349Z,26.01
2018-08-31T15:09:42.927Z,25.90
2018-08-31T15:12:11.460Z,25.83
2018-08-31T15:14:40.309Z,25.83
2018-08-31T15:17:08.876Z,25.84
2018-08-31T15:19:37.624Z,25.83
2018-08-31T15:22:06.280Z,25.78
2018-08-31T15:24:34.801Z,25.76
2018-08-31T15:27:03.585Z,25.72
2018-08-31T15:29:32.467Z,25.69
2018-08-31T15:32:01.132Z,25.68
2018-08-31T15:34:29.834Z,25.60
2018-08-31T15:36:58.508Z,25.55
2018-08-31T15:39:27.042Z,25.55
2018-08-31T15:41:55.628Z,25.43
2018-08-31T15:44:24.282Z,25.38
2018-08-31T15:46:52.796Z,25.36
2018-08-31T15:49:21.397Z,25.32
2018-08-31T15:51:49.968Z,25.30
2018-08-31T15:54:18.585Z,25.29
2018-08-31T15:56:47.125Z,25.29
2018-08-31T15:59:15.735Z,25.16
2018-08-31T16:01:44.305Z,25.07
2018-08-31T16:04:13.103Z,24.96
2018-08-31T16:06:41.962Z,24.81
2018-08-31T16:09:11.332Z,24.75
2018-08-31T16:11:40.072Z,24.72
2018-08-31T16:14:08.897Z,24.69
2018-08-31T16:16:37.635Z,24.63
2018-08-31T16:19:06.559Z,24.56
2018-08-31T16:21:35.178Z,24.53
2018-08-31T16:24:03.956Z,24.50
2018-08-31T16:26:32.746Z,21.10
2018-08-31T16:29:01.616Z,24.47
2018-08-31T16:31:30.320Z,24.38
2018-08-31T16:33:59.073Z,24.31
2018-08-31T16:36:27.964Z,24.31
2018-08-31T16:38:56.764Z,24.30
2018-08-31T16:41:25.628Z,24.32
2018-08-31T16:43:54.471Z,24.34
2018-08-31T16:46:23.264Z,24.33
2018-08-31T16:48:52.273Z,24.30
2018-08-31T16:51:21.044Z,24.26
2018-08-31T16:53:50.005Z,24.23
2018-08-31T16:56:19.392Z,23.23
2018-08-31T16:58:48.030Z,24.11
2018-08-31T17:01:16.717Z,24.10
2018-08-31T17:03:45.653Z,24.09
2018-08-31T17:06:14.497Z,24.07
2018-08-31T17:08:43.618Z,23.94
2018-08-31T17:11:12.588Z,23.86
2018-08-31T17:13:41.620Z,23.82
2018-08-31T17:16:10.472Z,23.74
2018-08-31T17:18:39.281Z,23.68
2018-08-31T17:21:08.088Z,23.64
2018-08-31T17:23:37.164Z,23.57
2018-08-31T17:26:06.241Z,23.53
2018-08-31T18:14:15.191Z,22.26
2018-08-31T18:16:44.931Z,22.20
2018-08-31T18:19:14.536Z,22.17
2018-08-31T18:21:49.947Z,22.12
2018-08-31T18:24:19.556Z,22.06
2018-08-31T18:26:48.991Z,21.99
2018-08-31T18:29:18.796Z,21.94
2018-08-31T18:31:48.103Z,21.87
2018-08-31T18:34:17.345Z,21.80
2018-08-31T18:36:46.293Z,21.72
2018-08-31T18:39:15.320Z,21.62
2018-08-31T18:41:44.574Z,21.53
2018-08-31T18:44:13.625Z,21.45
2018-08-31T18:46:43.537Z,21.39
2018-08-31T18:49:12.834Z,21.32
2018-08-31T18:51:42.159Z,21.24
2018-08-31T18:54:11.294Z,21.16
2018-08-31T18:56:40.910Z,21.09
2018-08-31T18:59:10.054Z,21.02
2018-08-31T19:01:39.291Z,20.95
2018-08-31T19:04:08.592Z,20.88
2018-08-31T19:06:38.217Z,20.81
2018-08-31T19:09:08.870Z,20.75
2018-08-31T19:11:37.923Z,20.67
2018-08-31T19:14:07.008Z,20.61
2018-08-31T19:16:36.317Z,20.56
2018-08-31T19:19:05.723Z,20.47
2018-08-31T19:21:34.981Z,20.39
2018-08-31T19:24:03.950Z,20.33
2018-08-31T19:26:32.892Z,20.26
2018-08-31T19:29:01.601Z,20.21
2018-08-31T19:31:30.489Z,20.18
2018-08-31T19:33:59.216Z,20.11
2018-08-31T19:36:28.903Z,20.04
2018-08-31T19:38:57.610Z,19.98
2018-08-31T19:41:26.432Z,19.93
2018-08-31T19:43:55.108Z,19.91
2018-08-31T19:46:23.911Z,19.87
2018-08-31T19:48:52.463Z,19.82
2018-08-31T19:51:21.186Z,19.78
2018-08-31T19:53:50.961Z,19.76
2018-08-31T19:56:19.594Z,19.45
2018-08-31T19:58:48.190Z,19.69
2018-08-31T20:01:16.878Z,19.66
2018-08-31T20:03:45.453Z,19.64
2018-08-31T20:06:14.079Z,19.60
2018-08-31T20:08:43.703Z,19.55
2018-08-31T20:11:12.324Z,19.51
2018-08-31T20:13:40.906Z,19.47
2018-08-31T20:16:09.692Z,19.43
2018-08-31T20:18:38.290Z,19.39
2018-08-31T20:21:06.990Z,19.33
2018-08-31T20:23:35.933Z,19.31
2018-08-31T20:26:04.469Z,19.27
2018-08-31T20:28:33.477Z,19.23
2018-08-31T20:31:02.141Z,19.20
2018-08-31T20:33:31.128Z,19.17
2018-08-31T20:36:00.369Z,19.13
2018-08-31T20:38:29.133Z,19.08
2018-08-31T20:40:57.635Z,19.04
2018-08-31T20:43:26.535Z,18.98
2018-08-31T20:45:55.692Z,18.93
2018-08-31T20:48:24.728Z,18.89
2018-08-31T20:50:53.655Z,18.84
2018-08-31T20:53:22.466Z,18.81
2018-08-31T20:55:51.017Z,18.79
2018-08-31T20:58:20.574Z,18.76
2018-08-31T21:00:49.343Z,18.72
2018-08-31T21:03:17.909Z,18.70
2018-08-31T21:05:46.612Z,18.66
2018-08-31T21:08:15.196Z,18.63
2018-08-31T21:10:43.640Z,18.60
2018-08-31T21:13:12.345Z,18.54
2018-08-31T21:15:40.912Z,18.51
2018-08-31T21:18:09.405Z,18.46
2018-08-31T21:20:37.875Z,18.44
2018-08-31T21:23:06.501Z,18.42
2018-08-31T21:25:35.029Z,18.39
2018-08-31T21:28:03.640Z,18.35
2018-08-31T21:30:32.214Z,18.31
2018-08-31T21:33:00.746Z,18.27
2018-08-31T21:35:29.338Z,18.22
2018-08-31T21:37:57.953Z,18.19
2018-08-31T21:40:26.419Z,18.17
2018-08-31T21:42:55.097Z,18.14
2018-08-31T21:45:23.689Z,18.11
2018-08-31T21:47:52.476Z,18.09
2018-08-31T21:50:21.465Z,18.04
2018-08-31T21:52:50.470Z,17.99
2018-08-31T21:55:19.684Z,17.96
2018-08-31T21:57:48.230Z,17.93
2018-08-31T22:00:22.084Z,17.90
2018-08-31T22:02:51.417Z,17.87
2018-08-31T22:05:20.048Z,17.86
2018-08-31T22:07:48.585Z,17.85
2018-08-31T22:10:17.200Z,17.82
2018-08-31T22:12:45.795Z,17.79
2018-08-31T22:15:18.840Z,17.76
2018-08-31T22:17:47.429Z,17.74
2018-08-31T22:20:15.988Z,17.71
2018-08-31T22:22:44.589Z,17.67
2018-08-31T22:25:13.121Z,17.63
2018-08-31T22:27:41.647Z,17.58
2018-08-31T22:30:10.730Z,17.54
2018-08-31T22:32:39.257Z,17.52
2018-08-31T22:35:07.781Z,17.49
2018-08-31T22:37:36.292Z,17.47
2018-08-31T22:40:05.090Z,17.45
2018-08-31T22:42:33.712Z,17.41
2018-08-31T22:45:02.385Z,17.39
2018-08-31T22:47:30.947Z,17.33
2018-08-31T22:49:59.455Z,17.29
2018-08-31T22:52:27.926Z,17.27
2018-08-31T22:54:56.514Z,17.23
2018-08-31T22:57:25.069Z,17.21
2018-08-31T22:59:53.566Z,17.17
2018-08-31T23:02:22.084Z,17.13
2018-08-31T23:04:50.599Z,17.07
2018-08-31T23:07:24.463Z,17.02
2018-08-31T23:09:52.996Z,16.97
2018-08-31T23:12:21.528Z,16.93
2018-08-31T23:14:50.057Z,16.89
2018-08-31T23:17:21.639Z,16.84
2018-08-31T23:19:50.132Z,16.80
2018-08-31T23:22:18.705Z,16.76
2018-08-31T23:24:47.297Z,16.77
2018-08-31T23:27:15.879Z,16.73
2018-08-31T23:29:44.566Z,16.74
2018-08-31T23:32:13.064Z,16.73
2018-08-31T23:34:41.689Z,16.71
2018-08-31T23:37:10.261Z,16.70
2018-08-31T23:39:38.858Z,16.68
2018-08-31T23:42:07.364Z,16.66
2018-08-31T23:44:35.845Z,16.64
2018-08-31T23:47:04.380Z,16.60
2018-08-31T23:49:32.990Z,16.57
2018-08-31T23:52:01.596Z,16.55
2018-08-31T23:54:30.252Z,16.55
2018-08-31T23:56:58.828Z,16.52
2018-08-31T23:59:27.473Z,16.52
